Time;durP1;ratioP1;P1;durP2;ratioP2;P2;SDS_P1;SDS_P2;PMS_P1;PMS_P2;Temp;Humidity;BMP_temperature;BMP_pressure;BME280_temperature;BME280_humidity;BME280_pressure;Samples;Min_cycle;Max_cycle;Signal;HPM_P1;HPM_P2
2021/12/25 00:01:11;;;;;;;3.55;1.65;;;26.80;86.60;;;;;;5074008;28;20063;-57
2021/12/25 00:03:38;;;;;;;2.50;1.50;;;26.90;86.40;;;;;;5074190;28;20035;-58
2021/12/25 00:06:06;;;;;;;4.68;1.92;;;26.90;86.50;;;;;;5074794;28;20505;-50
2021/12/25 00:08:34;;;;;;;2.40;1.48;;;26.90;86.60;;;;;;5075205;28;20025;-60
2021/12/25 00:11:08;;;;;;;3.63;1.75;;;26.90;86.60;;;;;;5074822;28;20467;-55
2021/12/25 00:13:40;;;;;;;2.70;1.73;;;26.90;86.90;;;;;;5074943;28;20536;-59
2021/12/25 00:16:08;;;;;;;1.77;1.30;;;26.90;86.80;;;;;;5074739;28;20028;-59
2021/12/25 00:18:38;;;;;;;1.92;1.23;;;26.90;86.70;;;;;;5075076;28;20037;-58
2021/12/25 00:21:07;;;;;;;4.28;1.98;;;26.90;86.70;;;;;;5075068;28;20071;-62
2021/12/25 00:23:35;;;;;;;2.50;1.48;;;26.80;87.10;;;;;;5074784;28;20047;-60
2021/12/25 00:26:11;;;;;;;4.80;1.52;;;26.90;87.20;;;;;;5074839;28;20024;-53
2021/12/25 00:36:19;;;;;;;4.88;1.35;;;27.30;85.90;;;;;;5073700;28;20031;-53
2021/12/25 00:38:48;;;;;;;2.70;1.73;;;27.30;85.50;;;;;;5073590;28;20113;-58
2021/12/25 00:41:18;;;;;;;2.25;1.40;;;27.30;85.70;;;;;;5074590;28;20024;-58
2021/12/25 00:43:46;;;;;;;3.78;1.63;;;27.20;85.80;;;;;;5074395;28;20070;-53
2021/12/25 00:46:14;;;;;;;5.45;1.67;;;27.30;85.60;;;;;;5074097;28;20148;-55
2021/12/25 00:48:42;;;;;;;2.08;1.33;;;27.40;85.30;;;;;;5074239;28;20111;-59
2021/12/25 00:51:09;;;;;;;2.58;1.75;;;27.50;85.00;;;;;;5074297;28;20089;-55
2021/12/25 00:53:37;;;;;;;3.03;1.40;;;27.40;84.90;;;;;;5072785;28;20044;-59
2021/12/25 00:56:04;;;;;;;3.58;1.58;;;27.50;84.70;;;;;;5074012;28;20028;-62
2021/12/25 00:58:32;;;;;;;4.07;1.75;;;27.70;84.30;;;;;;5074280;28;20025;-55
2021/12/25 01:01:00;;;;;;;3.05;1.48;;;27.70;84.40;;;;;;5073918;28;20423;-60
2021/12/25 01:03:27;;;;;;;3.05;1.30;;;27.60;84.10;;;;;;5074007;28;20399;-56
2021/12/25 01:05:54;;;;;;;3.35;1.52;;;27.70;84.40;;;;;;5073837;28;20029;-59
2021/12/25 01:08:22;;;;;;;4.75;2.05;;;27.60;84.80;;;;;;5074456;28;20376;-60
2021/12/25 01:10:49;;;;;;;2.28;1.13;;;27.70;84.50;;;;;;5074121;28;20028;-54
2021/12/25 01:13:25;;;;;;;2.85;1.38;;;27.70;84.40;;;;;;5073755;28;20032;-57
2021/12/25 01:26:56;;;;;;;2.35;1.30;;;27.90;84.00;;;;;;5073192;28;20036;-59
2021/12/25 01:50:07;;;;;;;2.80;1.30;;;28.20;83.10;;;;;;5073250;28;20039;-58
2021/12/25 01:52:35;;;;;;;2.00;1.20;;;28.10;83.30;;;;;;5073139;28;20078;-57
2021/12/25 01:55:13;;;;;;;3.05;1.40;;;28.10;83.50;;;;;;5072835;28;20040;-51
2021/12/25 01:57:41;;;;;;;1.92;1.10;;;28.10;83.10;;;;;;5073241;28;20024;-57
2021/12/25 02:00:22;;;;;;;1.45;1.10;;;28.10;83.60;;;;;;5073250;28;20059;-58
2021/12/25 02:02:50;;;;;;;4.30;1.60;;;28.10;83.90;;;;;;5073181;28;20024;-57
2021/12/25 02:05:18;;;;;;;1.73;1.13;;;28.20;83.40;;;;;;5072751;28;20024;-59
2021/12/25 02:07:45;;;;;;;2.17;1.00;;;28.10;83.70;;;;;;5072771;28;20047;-56
2021/12/25 02:10:14;;;;;;;3.75;1.40;;;28.10;83.70;;;;;;5072696;28;20071;-59
2021/12/25 02:12:42;;;;;;;3.15;1.40;;;28.20;83.30;;;;;;5072727;28;20028;-52
2021/12/25 02:15:15;;;;;;;2.45;1.25;;;28.20;83.50;;;;;;5072899;28;20020;-53
2021/12/25 02:20:24;;;;;;;3.15;1.33;;;28.20;83.60;;;;;;5072824;28;20517;-57
2021/12/25 02:22:59;;;;;;;2.10;1.30;;;28.30;83.40;;;;;;5073092;28;20028;-59
2021/12/25 02:25:27;;;;;;;2.42;1.00;;;28.30;83.20;;;;;;5072546;28;20360;-59
2021/12/25 02:27:55;;;;;;;2.70;1.23;;;28.30;83.20;;;;;;5073159;28;20131;-59
2021/12/25 02:30:22;;;;;;;1.45;1.15;;;28.20;83.60;;;;;;5073227;28;20446;-58
2021/12/25 02:32:50;;;;;;;2.30;1.20;;;28.10;84.40;;;;;;5073007;28;20031;-59
2021/12/25 02:35:18;;;;;;;2.83;1.20;;;28.20;83.90;;;;;;5073372;28;20025;-57
2021/12/25 02:37:46;;;;;;;2.70;1.63;;;28.30;83.80;;;;;;5073054;28;20035;-54
2021/12/25 02:40:14;;;;;;;1.48;1.02;;;28.20;84.10;;;;;;5072445;28;20024;-58
2021/12/25 02:42:42;;;;;;;1.85;1.23;;;28.20;84.00;;;;;;5073027;28;20024;-58
2021/12/25 02:45:17;;;;;;;1.92;1.10;;;28.20;84.10;;;;;;5072730;28;20208;-61
2021/12/25 02:47:48;;;;;;;1.77;1.10;;;28.30;83.80;;;;;;5072903;28;20028;-54
2021/12/25 02:50:31;;;;;;;1.67;1.00;;;28.20;83.90;;;;;;5072681;28;20031;-55
2021/12/25 02:53:01;;;;;;;2.05;1.13;;;28.20;83.80;;;;;;5072399;28;20159;-52
2021/12/25 02:55:29;;;;;;;2.05;1.20;;;28.40;83.40;;;;;;5072378;28;20047;-57
2021/12/25 02:57:57;;;;;;;3.72;1.50;;;28.40;83.20;;;;;;5072350;28;20029;-55
2021/12/25 03:00:27;;;;;;;2.63;1.17;;;28.40;83.60;;;;;;5075722;28;20028;-59
2021/12/25 03:02:55;;;;;;;4.05;1.40;;;28.40;83.50;;;;;;5076541;28;20026;-58
2021/12/25 03:05:24;;;;;;;1.98;1.10;;;28.40;83.40;;;;;;5076270;28;20024;-54
2021/12/25 03:07:52;;;;;;;2.30;1.17;;;28.30;84.00;;;;;;5076307;28;20037;-49
2021/12/25 03:10:20;;;;;;;2.22;1.20;;;28.40;83.60;;;;;;5076745;28;20054;-59
2021/12/25 03:12:52;;;;;;;3.22;1.33;;;28.40;83.60;;;;;;5076609;28;20032;-58
2021/12/25 03:15:29;;;;;;;2.72;1.02;;;28.40;83.50;;;;;;5076288;28;20021;-57
2021/12/25 03:17:57;;;;;;;4.60;1.23;;;28.50;83.30;;;;;;5076022;28;20086;-57
2021/12/25 03:20:25;;;;;;;2.03;0.98;;;28.50;83.40;;;;;;5076306;28;20078;-59
2021/12/25 03:22:53;;;;;;;2.70;1.38;;;28.40;83.20;;;;;;5076287;28;20421;-56
2021/12/25 03:25:20;;;;;;;2.17;0.82;;;28.40;83.20;;;;;;5075795;28;20028;-58
2021/12/25 03:27:49;;;;;;;4.25;1.30;;;28.40;82.80;;;;;;5076191;28;20547;-58
2021/12/25 03:30:21;;;;;;;1.95;0.77;;;28.40;82.90;;;;;;5075861;28;20039;-58
2021/12/25 03:32:48;;;;;;;3.55;1.15;;;28.30;84.00;;;;;;5076117;28;20029;-56
2021/12/25 03:35:16;;;;;;;2.63;1.10;;;28.30;83.40;;;;;;5075607;28;20032;-58
2021/12/25 03:37:43;;;;;;;2.75;1.02;;;28.20;84.00;;;;;;5075942;28;20029;-58
2021/12/25 03:40:11;;;;;;;2.97;0.98;;;28.20;84.50;;;;;;5075507;28;20077;-60
2021/12/25 03:42:39;;;;;;;3.67;1.08;;;28.20;84.70;;;;;;5075764;28;20020;-56
2021/12/25 03:45:06;;;;;;;1.77;1.00;;;28.10;83.90;;;;;;5074292;28;20025;-57
2021/12/25 03:47:37;;;;;;;1.63;0.90;;;28.10;85.10;;;;;;5075691;28;20109;-61
2021/12/25 03:53:11;;;;;;;2.53;1.23;;;28.10;85.30;;;;;;5075960;28;20028;-58
2021/12/25 03:58:30;;;;;;;2.90;1.05;;;28.10;85.10;;;;;;5076319;28;20521;-58
2021/12/25 04:01:03;;;;;;;1.65;1.15;;;28.10;85.30;;;;;;5075361;28;20036;-51
2021/12/25 04:03:50;;;;;;;2.58;0.90;;;28.10;85.50;;;;;;5075586;28;20115;-54
2021/12/25 04:06:17;;;;;;;2.55;1.10;;;28.00;85.40;;;;;;5075150;28;20067;-56
2021/12/25 04:08:47;;;;;;;2.65;1.05;;;28.10;85.60;;;;;;5075442;28;20093;-56
2021/12/25 04:11:26;;;;;;;2.58;1.40;;;28.10;85.40;;;;;;5074280;28;20024;-58
2021/12/25 04:13:54;;;;;;;2.53;0.90;;;28.10;85.50;;;;;;5074864;28;20028;-54
2021/12/25 04:16:22;;;;;;;5.68;1.33;;;28.10;85.90;;;;;;5074700;28;20383;-56
2021/12/25 04:18:50;;;;;;;3.15;1.10;;;28.10;85.50;;;;;;5074404;28;20386;-56
2021/12/25 04:21:17;;;;;;;1.83;1.13;;;28.10;85.40;;;;;;5075027;28;20016;-57
2021/12/25 04:23:45;;;;;;;1.15;0.70;;;28.10;85.50;;;;;;5075130;28;20104;-57
2021/12/25 04:26:13;;;;;;;1.67;1.10;;;28.10;85.50;;;;;;5075024;28;20201;-51
2021/12/25 04:28:47;;;;;;;2.05;0.80;;;28.10;86.00;;;;;;5075002;28;20028;-58
2021/12/25 04:48:08;;;;;;;1.85;0.90;;;27.90;86.50;;;;;;5074918;28;20044;-55
2021/12/25 05:01:51;;;;;;;2.30;1.00;;;28.00;86.60;;;;;;5074156;28;20078;-54
2021/12/25 05:04:25;;;;;;;3.42;1.15;;;27.90;86.60;;;;;;5074297;28;20013;-57
2021/12/25 05:06:53;;;;;;;2.58;1.30;;;27.90;86.60;;;;;;5074343;28;20479;-52
2021/12/25 05:09:20;;;;;;;6.18;1.10;;;27.90;86.70;;;;;;5073939;28;20028;-59
2021/12/25 05:11:48;;;;;;;3.03;0.95;;;27.90;86.70;;;;;;5073770;28;20112;-55
2021/12/25 05:14:15;;;;;;;2.30;1.15;;;27.90;86.80;;;;;;5073539;28;20063;-57
2021/12/25 05:16:43;;;;;;;2.30;1.05;;;27.80;87.00;;;;;;5073695;28;20040;-47
2021/12/25 05:19:10;;;;;;;2.33;1.02;;;27.90;87.10;;;;;;5073959;28;20047;-59
2021/12/25 05:21:38;;;;;;;3.67;1.33;;;27.80;87.20;;;;;;5073395;28;20021;-53
2021/12/25 05:24:06;;;;;;;2.00;0.98;;;27.80;87.30;;;;;;5073835;28;20024;-55
2021/12/25 05:26:34;;;;;;;1.75;0.85;;;27.80;87.20;;;;;;5073698;28;20029;-55
2021/12/25 05:29:02;;;;;;;4.40;1.13;;;27.80;87.40;;;;;;5073920;28;20032;-58
2021/12/25 05:31:32;;;;;;;1.33;0.90;;;27.90;87.30;;;;;;5073230;28;20021;-57
2021/12/25 05:34:00;;;;;;;3.95;1.30;;;27.80;87.60;;;;;;5073536;28;20379;-59
2021/12/25 05:36:28;;;;;;;1.95;0.80;;;27.80;87.30;;;;;;5073653;28;20020;-60
2021/12/25 05:38:59;;;;;;;1.10;0.70;;;27.80;87.30;;;;;;5073974;28;20024;-57
2021/12/25 05:41:28;;;;;;;1.87;0.87;;;27.90;87.40;;;;;;5073912;28;20501;-59
2021/12/25 05:43:56;;;;;;;2.20;0.80;;;27.80;87.50;;;;;;5073317;28;20037;-55
2021/12/25 05:46:24;;;;;;;2.72;1.10;;;27.90;87.30;;;;;;5073715;28;20033;-55
2021/12/25 05:48:52;;;;;;;1.90;0.85;;;27.90;87.40;;;;;;5072480;28;20046;-56
2021/12/25 05:51:19;;;;;;;6.78;1.23;;;27.90;87.40;;;;;;5073764;28;20101;-56
2021/12/25 05:53:47;;;;;;;3.80;1.40;;;27.80;87.20;;;;;;5073322;28;20057;-57
2021/12/25 05:56:15;;;;;;;2.08;1.10;;;27.80;87.20;;;;;;5073254;28;20044;-58
2021/12/25 05:58:43;;;;;;;3.83;1.38;;;27.80;86.90;;;;;;5073348;28;20113;-54
2021/12/25 06:01:11;;;;;;;2.67;1.00;;;27.80;86.70;;;;;;5071980;28;20029;-57
2021/12/25 06:03:39;;;;;;;3.20;1.33;;;27.80;86.90;;;;;;5073291;28;20444;-56
2021/12/25 06:06:07;;;;;;;5.00;1.20;;;27.70;87.00;;;;;;5073080;28;20115;-58
2021/12/25 06:08:35;;;;;;;2.65;1.00;;;27.70;87.60;;;;;;5073192;28;20035;-58
2021/12/25 06:11:03;;;;;;;3.78;0.80;;;27.70;87.60;;;;;;5073241;28;20063;-58
2021/12/25 06:13:31;;;;;;;2.45;0.80;;;27.60;87.70;;;;;;5073223;28;20024;-56
2021/12/25 06:16:01;;;;;;;3.25;1.40;;;27.60;88.50;;;;;;5072696;28;20386;-53
2021/12/25 06:18:29;;;;;;;3.67;1.48;;;27.60;87.90;;;;;;5073192;28;20060;-61
2021/12/25 06:20:56;;;;;;;2.78;1.05;;;27.60;88.20;;;;;;5072968;28;20040;-60
2021/12/25 06:23:26;;;;;;;1.90;1.10;;;27.50;88.10;;;;;;5073274;28;20025;-56
2021/12/25 06:25:54;;;;;;;2.95;1.00;;;27.50;88.60;;;;;;5072515;28;20471;-54
2021/12/25 06:28:21;;;;;;;4.68;1.80;;;27.40;88.80;;;;;;5071728;28;20400;-57
2021/12/25 06:30:51;;;;;;;2.45;1.02;;;27.40;88.80;;;;;;5072753;28;20028;-55
2021/12/25 06:33:19;;;;;;;2.10;0.98;;;27.40;88.60;;;;;;5070988;28;20393;-47
2021/12/25 06:35:47;;;;;;;6.00;1.42;;;27.40;88.90;;;;;;5072755;28;20024;-48
2021/12/25 06:38:14;;;;;;;3.90;1.23;;;27.30;89.50;;;;;;5072265;28;20029;-56
2021/12/25 06:40:41;;;;;;;1.88;1.00;;;27.30;89.00;;;;;;5072730;28;20027;-51
2021/12/25 06:43:09;;;;;;;3.03;0.85;;;27.30;89.10;;;;;;5072542;28;20482;-51
2021/12/25 06:45:36;;;;;;;4.50;1.08;;;27.20;89.30;;;;;;5072400;28;20025;-53
2021/12/25 06:48:04;;;;;;;1.98;0.85;;;27.20;89.30;;;;;;5072540;28;20068;-52
2021/12/25 06:50:31;;;;;;;2.35;0.90;;;27.10;89.70;;;;;;5072939;28;20028;-56
2021/12/25 06:52:59;;;;;;;3.30;1.10;;;27.10;89.80;;;;;;5072666;28;20029;-55
2021/12/25 06:55:26;;;;;;;3.05;1.20;;;27.10;90.00;;;;;;5072660;28;20045;-53
2021/12/25 06:57:55;;;;;;;5.88;1.20;;;27.10;89.80;;;;;;5072165;28;20024;-60
2021/12/25 07:00:24;;;;;;;2.80;0.82;;;27.00;90.00;;;;;;5072473;28;20107;-49
2021/12/25 07:02:52;;;;;;;3.78;1.27;;;27.00;89.80;;;;;;5072509;28;20102;-49
2021/12/25 07:05:19;;;;;;;3.67;1.05;;;27.00;90.00;;;;;;5072647;28;20485;-55
2021/12/25 07:07:47;;;;;;;4.55;1.08;;;27.00;90.00;;;;;;5072606;28;20062;-55
2021/12/25 07:10:14;;;;;;;3.35;1.05;;;27.00;90.00;;;;;;5072374;28;20490;-58
2021/12/25 07:12:46;;;;;;;2.38;1.17;;;27.00;90.10;;;;;;5072231;28;20024;-56
2021/12/25 07:15:14;;;;;;;4.25;1.60;;;27.00;90.20;;;;;;5072167;28;20024;-51
2021/12/25 07:17:42;;;;;;;4.03;1.33;;;26.90;90.20;;;;;;5072391;28;20024;-58
2021/12/25 07:20:11;;;;;;;4.20;1.15;;;26.90;90.30;;;;;;5072199;28;20029;-54
2021/12/25 07:22:38;;;;;;;2.97;1.10;;;26.90;90.30;;;;;;5072342;28;20020;-56
2021/12/25 07:25:07;;;;;;;2.47;1.00;;;26.90;90.40;;;;;;5072330;28;20056;-58
2021/12/25 07:27:35;;;;;;;4.43;1.15;;;26.90;90.40;;;;;;5071949;28;20068;-57
2021/12/25 07:30:05;;;;;;;2.70;1.25;;;26.80;90.40;;;;;;5071238;28;20021;-58
2021/12/25 07:32:32;;;;;;;3.92;0.95;;;26.80;90.40;;;;;;5072359;28;20028;-58
2021/12/25 07:35:00;;;;;;;3.45;0.93;;;26.80;90.50;;;;;;5072393;28;20027;-52
2021/12/25 07:37:27;;;;;;;5.97;1.40;;;26.80;90.50;;;;;;5072760;28;20036;-56
2021/12/25 07:39:55;;;;;;;3.17;1.27;;;26.70;90.60;;;;;;5072247;28;20099;-58
2021/12/25 07:42:22;;;;;;;2.80;1.42;;;26.70;90.60;;;;;;5072423;28;20032;-57
2021/12/25 07:44:54;;;;;;;2.55;1.20;;;26.70;90.60;;;;;;5072655;28;20032;-59
2021/12/25 07:47:23;;;;;;;3.42;0.90;;;26.70;90.60;;;;;;5075610;28;20043;-55
2021/12/25 07:49:51;;;;;;;3.50;1.13;;;26.70;90.60;;;;;;5075874;28;20021;-56
2021/12/25 07:52:19;;;;;;;3.42;1.15;;;26.60;90.60;;;;;;5074598;28;20123;-59
2021/12/25 07:54:46;;;;;;;5.15;1.27;;;26.60;90.50;;;;;;5075509;28;20049;-59
2021/12/25 07:57:14;;;;;;;4.65;1.10;;;26.60;90.60;;;;;;5074566;28;20483;-60
2021/12/25 07:59:41;;;;;;;4.40;1.30;;;26.60;90.60;;;;;;5075133;28;20052;-57
2021/12/25 08:02:09;;;;;;;5.07;1.15;;;26.60;90.60;;;;;;5075401;28;20035;-59
2021/12/25 08:04:37;;;;;;;4.10;1.33;;;26.60;90.60;;;;;;5075726;28;20025;-58
2021/12/25 08:07:04;;;;;;;3.83;1.10;;;26.50;90.60;;;;;;5075518;28;20513;-58
2021/12/25 08:09:32;;;;;;;3.88;1.05;;;26.50;90.60;;;;;;5074051;28;20028;-55
2021/12/25 08:12:01;;;;;;;3.08;0.93;;;26.50;90.60;;;;;;5074773;28;20103;-54
2021/12/25 08:14:30;;;;;;;2.55;0.90;;;26.50;90.60;;;;;;5075027;28;20066;-53
2021/12/25 08:17:00;;;;;;;2.92;1.00;;;26.50;90.70;;;;;;5075136;28;20031;-55
2021/12/25 08:19:28;;;;;;;4.25;1.35;;;26.40;90.70;;;;;;5074204;28;20498;-56
2021/12/25 08:21:55;;;;;;;2.67;0.85;;;26.40;90.70;;;;;;5073761;28;20044;-58
2021/12/25 08:24:22;;;;;;;3.88;1.30;;;26.40;90.90;;;;;;5075090;28;20016;-53
2021/12/25 08:27:04;;;;;;;5.07;1.15;;;26.40;90.90;;;;;;5075138;28;20032;-56
2021/12/25 08:29:36;;;;;;;2.35;0.90;;;26.40;90.90;;;;;;5074403;28;20043;-63
2021/12/25 08:32:03;;;;;;;;;;;26.40;90.90;;;;;;5075084;28;20025;-57
2021/12/25 08:34:31;;;;;;;3.85;1.20;;;26.40;90.90;;;;;;5075164;28;19957;-59
2021/12/25 08:36:58;;;;;;;4.10;1.38;;;26.40;90.90;;;;;;5074797;28;20064;-58
2021/12/25 08:39:26;;;;;;;3.47;1.20;;;26.40;90.90;;;;;;5074753;28;20073;-60
2021/12/25 08:42:01;;;;;;;1.58;0.82;;;26.40;90.90;;;;;;5074136;28;20036;-55
2021/12/25 08:44:51;;;;;;;3.83;1.23;;;26.30;90.90;;;;;;5073435;28;20017;-57
2021/12/25 08:47:19;;;;;;;1.88;0.90;;;26.30;90.90;;;;;;5074691;28;20033;-57
2021/12/25 08:49:47;;;;;;;2.53;1.00;;;26.30;90.90;;;;;;5074407;28;20025;-60
2021/12/25 08:52:17;;;;;;;4.18;1.10;;;26.30;91.00;;;;;;5074441;28;20056;-54
2021/12/25 08:54:48;;;;;;;1.83;1.20;;;26.30;91.00;;;;;;5074839;28;20099;-58
2021/12/25 08:57:17;;;;;;;2.40;0.80;;;26.30;91.00;;;;;;5074109;28;20029;-58
2021/12/25 08:59:46;;;;;;;2.35;1.00;;;26.30;91.00;;;;;;5074744;28;20256;-60
2021/12/25 09:02:16;;;;;;;2.80;1.10;;;26.20;91.10;;;;;;5074610;28;20063;-54
2021/12/25 09:04:51;;;;;;;3.38;1.15;;;26.20;91.20;;;;;;5074931;28;20027;-52
2021/12/25 09:07:22;;;;;;;3.15;1.00;;;26.20;91.20;;;;;;5073770;28;20483;-60
2021/12/25 09:09:52;;;;;;;2.63;0.93;;;26.20;91.20;;;;;;5075144;28;20025;-51
2021/12/25 09:12:21;;;;;;;2.58;0.93;;;26.20;91.20;;;;;;5073271;28;20025;-54
2021/12/25 09:14:48;;;;;;;3.70;1.08;;;26.10;91.20;;;;;;5074319;28;20027;-56
2021/12/25 09:17:15;;;;;;;2.13;0.82;;;26.20;91.20;;;;;;5074220;28;20090;-57
2021/12/25 09:19:43;;;;;;;3.25;1.02;;;26.20;91.10;;;;;;5074312;28;20028;-56
2021/12/25 09:22:12;;;;;;;2.25;0.70;;;26.20;91.20;;;;;;5073792;28;20032;-59
2021/12/25 09:24:40;;;;;;;2.40;1.10;;;26.20;91.20;;;;;;5074058;28;20025;-59
2021/12/25 09:27:11;;;;;;;4.47;1.20;;;26.10;91.20;;;;;;5073790;28;20040;-56
2021/12/25 09:29:38;;;;;;;4.63;1.35;;;26.10;91.20;;;;;;5073388;28;20032;-61
2021/12/25 09:32:06;;;;;;;6.85;1.10;;;26.10;91.20;;;;;;5073800;28;20032;-61
2021/12/25 09:34:33;;;;;;;4.25;1.17;;;26.10;91.10;;;;;;5073958;28;20506;-58
2021/12/25 09:37:01;;;;;;;2.92;1.08;;;26.10;91.10;;;;;;5072798;28;20028;-58
2021/12/25 09:39:28;;;;;;;2.42;0.80;;;26.10;91.10;;;;;;5073824;28;20422;-58
2021/12/25 09:41:56;;;;;;;2.20;1.15;;;26.10;91.10;;;;;;5073246;28;20042;-59
2021/12/25 09:44:24;;;;;;;2.55;1.05;;;26.10;91.10;;;;;;5073565;28;20016;-56
2021/12/25 09:46:55;;;;;;;3.33;1.10;;;26.10;91.10;;;;;;5072527;28;20033;-53
2021/12/25 09:49:33;;;;;;;2.88;1.00;;;26.10;91.10;;;;;;5074255;28;20357;-58
2021/12/25 09:52:01;;;;;;;2.50;0.75;;;26.10;91.20;;;;;;5073330;28;20071;-58
2021/12/25 09:54:28;;;;;;;1.35;0.70;;;26.00;91.10;;;;;;5073418;28;20076;-52
2021/12/25 09:56:57;;;;;;;3.08;1.02;;;26.00;91.10;;;;;;5071948;28;20037;-55
2021/12/25 09:59:25;;;;;;;3.72;0.98;;;26.00;91.20;;;;;;5073600;28;20028;-56
2021/12/25 10:01:56;;;;;;;1.85;0.70;;;26.00;91.20;;;;;;5072215;28;20025;-55
2021/12/25 10:04:47;;;;;;;2.10;1.08;;;26.00;91.30;;;;;;5073602;28;20363;-57
2021/12/25 10:07:32;;;;;;;2.55;1.00;;;26.00;91.30;;;;;;5073693;28;20479;-57
2021/12/25 10:10:15;;;;;;;2.70;0.93;;;26.00;91.30;;;;;;5073134;28;20037;-56
2021/12/25 10:12:46;;;;;;;1.95;0.75;;;26.00;91.30;;;;;;5073300;28;20070;-51
2021/12/25 10:15:25;;;;;;;2.40;0.75;;;26.00;91.30;;;;;;5073211;28;20536;-56
2021/12/25 10:17:55;;;;;;;3.22;1.13;;;25.90;91.20;;;;;;5073000;28;20024;-57
2021/12/25 10:20:30;;;;;;;2.40;0.88;;;26.00;91.50;;;;;;5073140;28;20024;-58
2021/12/25 10:23:10;;;;;;;3.63;0.98;;;26.00;91.40;;;;;;5073190;28;20529;-56
2021/12/25 10:26:05;;;;;;;4.82;1.23;;;25.90;91.30;;;;;;5073038;28;20475;-55
2021/12/25 10:28:40;;;;;;;4.13;1.40;;;25.90;91.20;;;;;;5073583;28;20086;-56
2021/12/25 10:31:13;;;;;;;4.25;1.58;;;25.90;91.30;;;;;;5073174;28;20021;-58
2021/12/25 10:33:51;;;;;;;3.17;0.90;;;25.90;91.40;;;;;;5071631;28;20021;-49
2021/12/25 10:36:29;;;;;;;4.78;1.80;;;25.90;91.30;;;;;;5071881;28;20520;-58
2021/12/25 10:39:05;;;;;;;2.55;1.17;;;25.90;91.30;;;;;;5073325;28;20028;-57
2021/12/25 10:41:38;;;;;;;3.03;1.08;;;25.90;91.30;;;;;;5073090;28;20024;-60
2021/12/25 10:44:18;;;;;;;2.20;0.80;;;25.90;91.30;;;;;;5072657;28;20544;-55
2021/12/25 10:46:55;;;;;;;3.80;1.02;;;25.90;91.30;;;;;;5072713;28;20036;-59
2021/12/25 10:49:34;;;;;;;2.70;1.02;;;25.90;91.40;;;;;;5071422;28;20016;-59
2021/12/25 10:52:13;;;;;;;2.92;0.80;;;25.90;91.30;;;;;;5072878;28;20060;-58
2021/12/25 10:54:43;;;;;;;4.10;0.85;;;25.90;91.30;;;;;;5072886;28;20376;-50
2021/12/25 10:57:11;;;;;;;1.70;1.02;;;25.80;91.30;;;;;;5073182;28;20078;-50
2021/12/25 10:59:47;;;;;;;2.75;1.00;;;25.80;91.40;;;;;;5072886;28;20021;-48
2021/12/25 11:02:36;;;;;;;2.08;0.80;;;25.80;91.40;;;;;;5072418;28;20546;-58
2021/12/25 11:05:30;;;;;;;2.50;1.05;;;25.80;91.50;;;;;;5072587;28;20032;-58
2021/12/25 11:08:15;;;;;;;1.63;0.82;;;25.80;91.30;;;;;;5072405;28;20032;-57
2021/12/25 11:11:06;;;;;;;1.83;0.90;;;25.80;91.30;;;;;;5072544;28;20025;-58
2021/12/25 11:13:38;;;;;;;2.22;1.05;;;25.80;91.40;;;;;;5067549;28;20033;-58
2021/12/25 11:16:21;;;;;;;3.53;1.00;;;25.80;91.40;;;;;;5072232;28;20043;-55
2021/12/25 11:19:01;;;;;;;3.67;0.95;;;25.70;91.40;;;;;;5071436;28;20401;-60
2021/12/25 11:21:31;;;;;;;3.17;1.00;;;25.70;91.40;;;;;;5075799;28;20406;-48
2021/12/25 11:24:26;;;;;;;3.13;1.08;;;25.70;91.50;;;;;;5075948;28;20378;-53
2021/12/25 11:27:03;;;;;;;2.70;1.10;;;25.70;91.40;;;;;;5074750;28;20033;-61
2021/12/25 11:29:32;;;;;;;3.13;1.23;;;25.70;91.40;;;;;;5076063;28;20032;-59
2021/12/25 11:32:00;;;;;;;2.78;1.00;;;25.70;91.50;;;;;;5075989;28;20095;-60
2021/12/25 11:34:29;;;;;;;1.85;0.90;;;25.70;91.60;;;;;;5076138;28;20033;-58
2021/12/25 11:37:00;;;;;;;2.15;0.80;;;25.70;91.50;;;;;;5075925;28;20128;-60
2021/12/25 11:39:30;;;;;;;2.60;0.90;;;25.60;91.50;;;;;;5076075;28;20043;-56
2021/12/25 11:42:04;;;;;;;3.17;1.35;;;25.60;91.60;;;;;;5075816;28;20020;-57
2021/12/25 11:44:52;;;;;;;4.47;1.13;;;25.60;91.90;;;;;;5076050;28;20024;-58
2021/12/25 11:47:38;;;;;;;1.52;0.77;;;25.60;91.60;;;;;;5075597;28;20039;-61
2021/12/25 11:50:15;;;;;;;3.63;1.08;;;25.60;91.70;;;;;;5075451;28;20028;-51
2021/12/25 11:52:51;;;;;;;1.38;0.73;;;25.60;91.80;;;;;;5075997;28;20379;-58
2021/12/25 11:56:19;;;;;;;3.53;1.00;;;25.50;91.80;;;;;;5075617;28;20494;-61
2021/12/25 11:58:46;;;;;;;2.80;1.27;;;25.50;91.80;;;;;;5069288;28;20521;-58
2021/12/25 12:01:21;;;;;;;3.22;1.38;;;25.50;91.90;;;;;;5075488;28;20470;-57
2021/12/25 12:04:01;;;;;;;2.92;1.10;;;25.50;91.90;;;;;;5075392;28;20028;-51
2021/12/25 12:06:56;;;;;;;2.92;0.90;;;25.50;91.90;;;;;;5073964;28;20056;-53
2021/12/25 12:09:44;;;;;;;3.17;1.45;;;25.50;91.90;;;;;;5073660;28;20037;-55
2021/12/25 12:12:34;;;;;;;3.83;1.70;;;25.50;91.90;;;;;;5075051;28;20358;-56
2021/12/25 12:15:18;;;;;;;1.48;0.73;;;25.50;91.90;;;;;;5075144;28;20360;-61
2021/12/25 12:17:47;;;;;;;4.28;1.20;;;25.50;91.90;;;;;;5075315;28;20052;-57
2021/12/25 12:20:42;;;;;;;3.47;1.27;;;25.50;91.90;;;;;;5075046;28;20035;-55
2021/12/25 12:26:13;;;;;;;4.95;1.08;;;25.50;91.90;;;;;;5074897;28;20099;-52
2021/12/25 12:28:48;;;;;;;4.15;1.17;;;25.50;91.90;;;;;;5073587;28;20383;-63
2021/12/25 12:31:48;;;;;;;2.70;0.95;;;25.40;91.90;;;;;;5074217;28;20025;-59
2021/12/25 12:34:30;;;;;;;4.15;0.98;;;25.40;91.90;;;;;;5052304;28;20490;-59
2021/12/25 12:37:24;;;;;;;2.67;1.10;;;25.40;92.00;;;;;;5075140;28;20028;-56
2021/12/25 12:40:05;;;;;;;2.55;0.82;;;25.40;92.00;;;;;;5073837;28;20547;-53
2021/12/25 12:42:49;;;;;;;2.45;1.05;;;25.40;92.00;;;;;;5075023;28;20028;-59
2021/12/25 12:45:16;;;;;;;6.40;1.35;;;25.40;92.00;;;;;;5075069;28;20032;-57
2021/12/25 12:48:14;;;;;;;3.85;1.00;;;25.40;92.00;;;;;;5074994;28;20078;-58
2021/12/25 12:50:54;;;;;;;3.05;1.25;;;25.40;92.00;;;;;;5074605;28;20020;-62
2021/12/25 12:53:24;;;;;;;2.55;1.00;;;25.40;92.10;;;;;;5074546;28;20094;-56
2021/12/25 12:55:54;;;;;;;3.78;0.98;;;25.30;92.00;;;;;;5074679;28;20024;-59
2021/12/25 12:58:27;;;;;;;3.38;1.05;;;25.30;92.10;;;;;;5074646;28;20399;-60
2021/12/25 13:01:01;;;;;;;2.50;1.20;;;25.30;92.10;;;;;;5074470;28;20482;-59
2021/12/25 13:03:30;;;;;;;1.60;0.70;;;25.30;92.00;;;;;;5074306;28;20427;-62
2021/12/25 13:06:09;;;;;;;2.53;0.98;;;25.30;92.00;;;;;;5073783;28;20025;-59
2021/12/25 13:08:38;;;;;;;2.60;1.00;;;25.30;92.10;;;;;;5074342;28;20037;-56
2021/12/25 13:11:21;;;;;;;2.90;0.82;;;25.30;92.00;;;;;;5074333;28;20099;-58
2021/12/25 13:13:59;;;;;;;3.03;1.00;;;25.30;92.00;;;;;;5074016;28;20052;-56
2021/12/25 13:16:40;;;;;;;3.17;1.08;;;25.30;92.00;;;;;;5074462;28;20047;-59
2021/12/25 13:19:08;;;;;;;2.42;0.80;;;25.30;92.00;;;;;;5074400;28;20027;-52
2021/12/25 13:21:37;;;;;;;2.83;1.10;;;25.30;92.00;;;;;;5074134;28;20025;-60
2021/12/25 13:24:14;;;;;;;3.38;1.33;;;25.30;92.00;;;;;;5073896;28;20024;-58
2021/12/25 13:26:48;;;;;;;2.53;0.93;;;25.30;92.00;;;;;;5073641;28;20037;-59
2021/12/25 13:29:20;;;;;;;1.83;0.90;;;25.20;92.00;;;;;;5074507;28;20028;-59
2021/12/25 13:31:48;;;;;;;3.38;1.00;;;25.20;92.00;;;;;;5073948;28;20025;-59
2021/12/25 13:34:23;;;;;;;2.03;0.80;;;25.20;92.00;;;;;;5073593;28;20030;-57
2021/12/25 13:36:54;;;;;;;2.47;1.30;;;25.20;92.00;;;;;;5073668;28;20029;-57
2021/12/25 13:39:28;;;;;;;1.45;0.75;;;25.20;92.00;;;;;;5073707;28;20025;-54
2021/12/25 13:42:05;;;;;;;2.08;0.90;;;25.20;92.00;;;;;;5073569;28;20060;-54
2021/12/25 13:44:35;;;;;;;2.70;0.70;;;25.20;92.10;;;;;;5073498;28;20532;-58
2021/12/25 13:47:24;;;;;;;1.35;0.60;;;25.20;92.10;;;;;;5073560;28;20425;-59
2021/12/25 13:49:54;;;;;;;1.88;0.68;;;25.20;92.30;;;;;;5073429;28;20023;-58
2021/12/25 13:52:21;;;;;;;2.25;0.95;;;25.20;92.00;;;;;;5073462;28;20031;-59
2021/12/25 13:55:12;;;;;;;3.53;1.35;;;25.20;92.00;;;;;;5073418;28;20069;-59
2021/12/25 13:57:46;;;;;;;2.28;0.85;;;25.10;92.00;;;;;;5073360;28;20020;-57
2021/12/25 14:00:17;;;;;;;2.75;0.98;;;25.10;92.00;;;;;;5072045;28;20078;-55
2021/12/25 14:02:59;;;;;;;5.30;1.23;;;25.10;92.00;;;;;;5073543;28;20016;-57
2021/12/25 14:05:30;;;;;;;3.45;0.98;;;25.10;92.00;;;;;;5073479;28;20036;-51
2021/12/25 14:07:58;;;;;;;1.83;0.80;;;25.10;92.00;;;;;;5073041;28;20032;-57
2021/12/25 14:10:29;;;;;;;5.60;1.17;;;25.10;92.00;;;;;;5073172;28;20036;-58
2021/12/25 14:13:03;;;;;;;3.83;1.10;;;25.10;92.00;;;;;;5073098;28;20494;-57
2021/12/25 14:15:34;;;;;;;2.97;1.10;;;25.10;92.00;;;;;;5071994;28;20025;-52
2021/12/25 14:18:06;;;;;;;3.30;1.20;;;25.10;92.00;;;;;;5073297;28;20021;-56
2021/12/25 14:20:35;;;;;;;3.05;1.17;;;25.00;92.00;;;;;;5073120;28;20257;-54
2021/12/25 14:23:07;;;;;;;1.55;0.73;;;25.00;92.00;;;;;;5073153;28;20024;-56
2021/12/25 14:25:39;;;;;;;3.35;1.00;;;25.00;92.00;;;;;;5073113;28;20024;-59
2021/12/25 14:28:13;;;;;;;;;;;25.00;92.00;;;;;;5073084;28;20048;-54
2021/12/25 14:30:47;;;;;;;1.65;0.93;;;25.00;92.00;;;;;;5073234;28;19991;-56